createdAt,value
2019-04-21T00:01:03.912Z,11.00
2019-04-21T00:03:40.196Z,12.90
2019-04-21T00:06:24.961Z,14.73
2019-04-21T00:08:57.950Z,12.83
2019-04-21T00:11:33.014Z,12.63
2019-04-21T00:13:52.729Z,13.13
2019-04-21T00:16:14.159Z,13.87
2019-04-21T00:19:09.343Z,13.33
2019-04-21T00:21:43.808Z,12.83
2019-04-21T00:24:24.009Z,13.33
2019-04-21T00:27:15.624Z,12.87
2019-04-21T00:30:01.809Z,15.83
2019-04-21T00:32:06.757Z,12.63
2019-04-21T00:34:21.769Z,12.90
2019-04-21T00:37:05.051Z,14.00
2019-04-21T00:42:16.777Z,14.00
2019-04-21T00:44:40.078Z,14.90
2019-04-21T00:47:25.433Z,14.23
2019-04-21T00:49:56.854Z,14.07
2019-04-21T00:53:22.499Z,14.23
2019-04-21T00:55:39.455Z,17.30
2019-04-21T00:58:10.678Z,14.60
2019-04-21T01:00:38.542Z,14.63
2019-04-21T01:03:14.803Z,14.80
2019-04-21T01:05:51.476Z,15.53
2019-04-21T01:08:21.971Z,14.63
2019-04-21T01:10:43.944Z,15.80
2019-04-21T01:13:27.573Z,16.50
2019-04-21T01:15:53.341Z,14.57
2019-04-21T01:18:26.185Z,15.03
2019-04-21T01:20:37.979Z,15.03
2019-04-21T01:23:08.507Z,16.73
2019-04-21T01:25:44.871Z,15.97
2019-04-21T01:28:32.799Z,16.60
2019-04-21T01:31:07.470Z,14.43
2019-04-21T01:33:41.256Z,14.23
2019-04-21T01:36:06.942Z,15.07
2019-04-21T01:38:42.761Z,14.60
2019-04-21T01:41:14.797Z,14.70
2019-04-21T01:43:43.078Z,13.53
2019-04-21T01:46:10.721Z,15.33
2019-04-21T01:48:40.310Z,14.17
2019-04-21T01:51:15.608Z,15.20
2019-04-21T01:54:14.707Z,14.33
2019-04-21T01:57:08.526Z,14.87
2019-04-21T01:59:34.914Z,17.13
2019-04-21T02:02:14.182Z,15.57
2019-04-21T02:04:47.444Z,14.17
2019-04-21T02:07:17.646Z,15.90
2019-04-21T02:09:50.717Z,16.00
2019-04-21T02:12:20.905Z,14.63
2019-04-21T02:14:58.213Z,15.53
2019-04-21T02:17:29.706Z,17.10
2019-04-21T02:19:55.158Z,16.13
2019-04-21T02:22:43.121Z,16.13
2019-04-21T02:25:08.249Z,16.03
2019-04-21T02:27:37.678Z,17.07
2019-04-21T02:30:12.201Z,16.33
2019-04-21T02:32:48.393Z,15.67
2019-04-21T02:40:36.259Z,17.17
2019-04-21T02:45:41.028Z,16.30
2019-04-21T02:53:00.936Z,16.77
2019-04-21T02:55:30.408Z,17.27
2019-04-21T02:58:09.761Z,16.97
2019-04-21T03:01:10.108Z,16.80
2019-04-21T03:06:18.534Z,17.53
2019-04-21T03:11:17.030Z,16.73
2019-04-21T03:14:03.426Z,18.90
2019-04-21T03:16:26.512Z,16.50
2019-04-21T03:18:56.601Z,16.33
2019-04-21T03:21:29.191Z,16.97
2019-04-21T03:24:01.258Z,16.03
2019-04-21T03:26:36.722Z,17.67
2019-04-21T03:29:12.127Z,16.60
2019-04-21T03:32:03.991Z,16.53
2019-04-21T03:34:41.176Z,16.47
2019-04-21T03:36:58.638Z,16.43
2019-04-21T03:39:07.771Z,17.00
2019-04-21T03:41:48.769Z,17.07
2019-04-21T03:44:14.470Z,17.20
2019-04-21T03:46:53.071Z,16.03
2019-04-21T03:49:32.189Z,17.47
2019-04-21T03:51:59.218Z,16.80
2019-04-21T03:54:30.500Z,16.17
2019-04-21T03:57:09.031Z,17.50
2019-04-21T03:59:21.009Z,18.83
2019-04-21T04:05:15.140Z,17.70
2019-04-21T04:10:22.827Z,17.57
2019-04-21T04:12:52.252Z,17.00
2019-04-21T04:18:04.230Z,18.40
2019-04-21T04:25:27.836Z,17.23
2019-04-21T04:28:08.237Z,18.10
2019-04-21T04:33:08.011Z,19.10
2019-04-21T04:38:18.001Z,19.10
2019-04-21T04:41:03.868Z,17.43
2019-04-21T04:43:32.913Z,17.70
2019-04-21T04:46:00.499Z,17.23
2019-04-21T04:48:28.449Z,17.40
2019-04-21T04:51:01.331Z,17.53
2019-04-21T04:53:40.924Z,18.43
2019-04-21T04:56:08.117Z,16.80
2019-04-21T04:59:14.761Z,15.40
2019-04-21T05:09:10.874Z,14.53
2019-04-21T05:11:41.678Z,15.07
2019-04-21T05:16:41.021Z,14.70
2019-04-21T05:19:10.144Z,15.10
2019-04-21T05:24:02.146Z,13.73
2019-04-21T05:26:27.028Z,15.17
2019-04-21T05:28:59.322Z,14.10
2019-04-21T05:31:51.015Z,12.60
2019-04-21T05:34:26.044Z,13.70
2019-04-21T05:37:14.138Z,13.33
2019-04-21T05:40:12.245Z,12.73
2019-04-21T05:42:34.187Z,12.37
2019-04-21T05:45:23.112Z,13.33
2019-04-21T05:48:11.899Z,12.83
2019-04-21T05:50:32.506Z,13.90
2019-04-21T05:53:17.710Z,12.57
2019-04-21T05:55:47.227Z,12.90
2019-04-21T05:58:29.960Z,13.43
2019-04-21T06:01:15.376Z,11.73
2019-04-21T06:03:41.158Z,12.35
2019-04-21T06:06:08.549Z,11.80
2019-04-21T06:08:31.382Z,13.20
2019-04-21T06:11:10.292Z,12.33
2019-04-21T06:13:42.892Z,11.70
2019-04-21T06:16:07.344Z,10.70
2019-04-21T06:21:11.558Z,12.13
2019-04-21T06:23:40.224Z,12.25
2019-04-21T06:26:43.399Z,12.88
2019-04-21T06:28:47.017Z,13.03
2019-04-21T06:31:43.693Z,12.55
2019-04-21T06:33:51.985Z,12.90
2019-04-21T06:39:12.062Z,12.70
2019-04-21T06:41:39.489Z,12.73
2019-04-21T06:44:11.834Z,12.73
2019-04-21T06:46:46.616Z,13.25
2019-04-21T06:49:06.809Z,12.65
2019-04-21T06:51:43.334Z,12.00
2019-04-21T06:54:16.110Z,12.68
2019-04-21T06:57:00.102Z,12.88
2019-04-21T06:59:17.038Z,13.20
2019-04-21T07:01:56.693Z,12.10
2019-04-21T07:04:27.980Z,12.30
2019-04-21T07:09:31.842Z,12.58
2019-04-21T07:12:01.846Z,12.18
2019-04-21T07:14:49.767Z,12.18
2019-04-21T07:17:11.625Z,12.15
2019-04-21T07:19:40.948Z,11.60
2019-04-21T07:22:11.128Z,12.18
2019-04-21T07:24:43.344Z,11.70
2019-04-21T07:27:15.247Z,12.65
2019-04-21T07:32:14.044Z,11.95
2019-04-21T07:34:49.829Z,11.93
2019-04-21T07:37:23.909Z,11.60
2019-04-21T07:39:49.433Z,10.93
2019-04-21T07:42:17.450Z,12.07
2019-04-21T07:44:53.551Z,11.80
2019-04-21T07:47:34.352Z,12.13
2019-04-21T07:50:14.838Z,11.18
2019-04-21T07:52:55.064Z,11.43
2019-04-21T07:57:51.652Z,11.78
2019-04-21T08:03:05.797Z,11.83
2019-04-21T08:05:32.430Z,12.28
2019-04-21T08:08:08.148Z,11.30
2019-04-21T08:10:33.533Z,10.93
2019-04-21T08:13:14.694Z,11.33
2019-04-21T08:18:13.117Z,11.53
2019-04-21T08:20:45.192Z,11.50
2019-04-21T08:23:20.419Z,11.03
2019-04-21T08:26:06.462Z,11.88
2019-04-21T08:28:24.181Z,10.80
2019-04-21T08:30:50.225Z,10.32
2019-04-21T08:33:36.649Z,11.30
2019-04-21T08:36:11.659Z,9.63
2019-04-21T08:38:27.679Z,10.25
2019-04-21T08:41:05.111Z,9.95
2019-04-21T08:43:43.064Z,10.20
2019-04-21T08:46:05.409Z,10.60
2019-04-21T08:48:37.922Z,10.35
2019-04-21T08:51:26.082Z,9.48
2019-04-21T08:53:42.258Z,10.23
2019-04-21T08:56:34.405Z,11.08
2019-04-21T09:02:06.668Z,10.38
2019-04-21T09:04:35.183Z,9.33
2019-04-21T09:09:41.643Z,9.40
2019-04-21T09:12:17.848Z,10.48
2019-04-21T09:14:50.484Z,9.65
2019-04-21T09:17:14.946Z,9.23
2019-04-21T09:19:58.074Z,8.93
2019-04-21T09:22:16.766Z,9.28
2019-04-21T09:24:53.622Z,9.23
2019-04-21T09:27:29.398Z,8.68
2019-04-21T09:29:47.954Z,8.45
2019-04-21T09:32:16.630Z,9.00
2019-04-21T09:34:45.252Z,8.93
2019-04-21T09:37:26.580Z,9.30
2019-04-21T09:39:51.713Z,8.98
2019-04-21T09:42:21.459Z,9.18
2019-04-21T09:44:55.639Z,9.43
2019-04-21T09:47:33.630Z,8.03
2019-04-21T09:49:56.290Z,11.43
2019-04-21T09:52:37.142Z,8.98
2019-04-21T09:55:08.301Z,8.45
2019-04-21T09:57:39.913Z,7.87
2019-04-21T10:00:11.350Z,8.33
2019-04-21T10:02:43.846Z,7.92
2019-04-21T10:05:07.778Z,8.18
2019-04-21T10:07:41.722Z,8.15
2019-04-21T10:10:10.867Z,7.12
2019-04-21T10:12:41.268Z,7.03
2019-04-21T10:15:11.448Z,7.75
2019-04-21T10:17:49.527Z,9.05
2019-04-21T10:20:20.369Z,6.92
2019-04-21T10:22:50.972Z,8.20
2019-04-21T10:25:21.085Z,7.60
2019-04-21T10:27:52.842Z,7.40
2019-04-21T10:30:26.733Z,7.65
2019-04-21T10:32:56.880Z,7.08
2019-04-21T10:35:26.901Z,7.60
2019-04-21T10:38:06.744Z,11.57
2019-04-21T10:40:32.065Z,8.00
2019-04-21T10:43:00.529Z,7.97
2019-04-21T10:45:30.960Z,7.17
2019-04-21T10:48:01.073Z,6.83
2019-04-21T10:50:31.451Z,7.50
2019-04-21T10:53:09.245Z,7.17
2019-04-21T10:55:54.333Z,7.83
2019-04-21T10:58:22.411Z,7.17
2019-04-21T11:01:00.003Z,7.03
2019-04-21T11:03:38.327Z,8.35
2019-04-21T11:06:08.762Z,7.17
2019-04-21T11:08:44.010Z,6.30
2019-04-21T11:11:12.251Z,7.75
2019-04-21T11:13:42.632Z,7.30
2019-04-21T11:16:13.124Z,6.67
2019-04-21T11:18:44.111Z,6.47
2019-04-21T11:21:14.397Z,11.12
2019-04-21T11:23:45.798Z,7.72
2019-04-21T11:26:16.180Z,6.72
2019-04-21T11:28:47.217Z,6.78
2019-04-21T11:31:18.796Z,6.42
2019-04-21T11:33:49.221Z,6.97
2019-04-21T11:36:19.524Z,6.50
2019-04-21T11:39:19.797Z,6.65
2019-04-21T11:41:39.973Z,7.20
2019-04-21T11:44:10.079Z,6.83
2019-04-21T11:46:40.667Z,7.17
2019-04-21T11:49:12.638Z,7.40
2019-04-21T11:51:42.921Z,6.65
2019-04-21T11:54:13.041Z,7.58
2019-04-21T11:56:43.236Z,6.72
2019-04-21T11:59:13.432Z,7.72
2019-04-21T12:01:43.633Z,8.05
2019-04-21T12:04:13.931Z,7.33
2019-04-21T12:06:47.250Z,7.33
2019-04-21T12:09:16.906Z,7.87
2019-04-21T12:11:47.425Z,6.75
2019-04-21T12:14:18.287Z,6.28
2019-04-21T12:16:50.796Z,6.30
2019-04-21T12:19:21.154Z,7.12
2019-04-21T12:22:02.416Z,7.83
2019-04-21T12:24:24.891Z,7.80
2019-04-21T12:26:56.001Z,7.95
2019-04-21T12:29:26.934Z,8.00
2019-04-21T12:32:15.940Z,7.50
2019-04-21T12:34:48.898Z,7.25
2019-04-21T12:37:19.257Z,6.85
2019-04-21T12:39:50.578Z,7.00
2019-04-21T12:42:20.864Z,6.85
2019-04-21T12:44:51.730Z,8.53
2019-04-21T12:47:21.818Z,7.45
2019-04-21T12:49:52.093Z,7.12
2019-04-21T12:52:22.267Z,7.50
2019-04-21T12:54:53.536Z,7.28
2019-04-21T12:57:23.654Z,8.50
2019-04-21T12:59:54.987Z,6.80
2019-04-21T13:02:25.489Z,8.60
2019-04-21T13:04:55.883Z,8.15
2019-04-21T13:07:27.630Z,8.98
2019-04-21T13:09:58.048Z,7.15
2019-04-21T13:12:28.977Z,6.35
2019-04-21T13:14:59.615Z,10.18
2019-04-21T13:17:31.181Z,6.50
2019-04-21T13:20:03.370Z,6.15
2019-04-21T13:22:34.313Z,6.83
2019-04-21T13:25:05.517Z,6.10
2019-04-21T13:27:36.676Z,16.82
2019-04-21T13:30:12.623Z,8.53
2019-04-21T13:32:43.014Z,8.53
2019-04-21T13:35:15.062Z,6.40
2019-04-21T13:37:45.757Z,6.15
2019-04-21T13:40:53.037Z,8.60
2019-04-21T13:43:10.282Z,13.05
2019-04-21T13:45:39.898Z,9.33
2019-04-21T13:48:10.585Z,6.20
2019-04-21T13:50:41.414Z,5.62
2019-04-21T13:53:12.421Z,5.85
2019-04-21T13:55:44.551Z,10.68
2019-04-21T13:58:16.811Z,6.30
2019-04-21T14:00:47.723Z,6.70
2019-04-21T14:03:21.034Z,6.35
2019-04-21T14:05:51.524Z,6.10
2019-04-21T14:08:23.117Z,6.08
2019-04-21T14:10:53.641Z,5.12
2019-04-21T14:13:24.625Z,9.18
2019-04-21T14:15:55.939Z,5.53
2019-04-21T14:18:26.868Z,6.85
2019-04-21T14:20:57.452Z,6.03
2019-04-21T14:23:35.528Z,5.95
2019-04-21T14:26:01.655Z,5.00
2019-04-21T14:28:32.519Z,5.62
2019-04-21T14:31:04.421Z,5.15
2019-04-21T14:33:34.457Z,4.70
2019-04-21T14:36:05.237Z,5.97
2019-04-21T14:38:36.641Z,5.33
2019-04-21T14:41:08.285Z,5.50
2019-04-21T14:43:38.691Z,5.12
2019-04-21T14:46:13.513Z,5.25
2019-04-21T14:49:01.514Z,5.10
2019-04-21T14:51:49.316Z,5.83
2019-04-21T14:54:50.933Z,5.75
2019-04-21T14:57:21.275Z,5.15
2019-04-21T14:59:53.008Z,5.55
2019-04-21T15:02:23.063Z,6.50
2019-04-21T15:04:53.937Z,5.37
2019-04-21T15:07:37.161Z,5.15
2019-04-21T15:10:16.350Z,5.70
2019-04-21T15:12:41.558Z,5.53
2019-04-21T15:15:11.853Z,5.58
2019-04-21T15:17:42.302Z,5.25
2019-04-21T15:20:17.656Z,5.60
2019-04-21T15:22:48.330Z,4.90
2019-04-21T15:25:18.637Z,6.90
2019-04-21T15:27:49.035Z,5.47
2019-04-21T15:30:20.687Z,6.03
2019-04-21T15:32:50.845Z,8.68
2019-04-21T15:35:21.398Z,6.47
2019-04-21T15:37:51.912Z,5.30
2019-04-21T15:40:32.038Z,5.50
2019-04-21T15:42:54.737Z,8.83
2019-04-21T15:45:26.345Z,5.62
2019-04-21T15:47:58.083Z,6.78
2019-04-21T15:50:28.621Z,5.45
2019-04-21T15:53:01.611Z,5.85
2019-04-21T15:55:44.508Z,5.15
2019-04-21T15:58:32.956Z,5.10
2019-04-21T16:01:38.729Z,5.53
2019-04-21T16:04:10.535Z,4.53
2019-04-21T16:06:41.567Z,5.08
2019-04-21T16:09:14.967Z,5.60
2019-04-21T16:11:44.090Z,4.80
2019-04-21T16:14:14.716Z,5.25
2019-04-21T16:16:45.355Z,4.33
2019-04-21T16:19:16.420Z,5.15
2019-04-21T16:21:46.720Z,4.50
2019-04-21T16:24:18.273Z,4.30
2019-04-21T16:26:50.699Z,4.75
2019-04-21T16:29:20.937Z,4.33
2019-04-21T16:31:51.516Z,4.40
2019-04-21T16:34:21.991Z,5.33
2019-04-21T16:36:52.264Z,4.60
2019-04-21T16:39:23.217Z,4.40
2019-04-21T16:41:54.227Z,4.40
2019-04-21T16:44:25.288Z,5.05
2019-04-21T16:46:55.771Z,5.35
2019-04-21T16:49:27.463Z,6.03
2019-04-21T16:52:16.486Z,4.97
2019-04-21T16:54:49.684Z,4.97
2019-04-21T16:57:30.511Z,5.15
2019-04-21T17:00:08.757Z,4.80
2019-04-21T17:02:38.869Z,7.25
2019-04-21T17:05:09.984Z,4.80
2019-04-21T17:07:40.943Z,4.90
2019-04-21T17:10:12.870Z,5.25
2019-04-21T17:12:43.693Z,5.20
2019-04-21T17:15:32.390Z,7.12
2019-04-21T17:18:04.272Z,5.12
2019-04-21T17:20:34.241Z,5.33
2019-04-21T17:22:53.662Z,4.53
2019-04-21T17:25:25.916Z,6.30
2019-04-21T17:27:56.840Z,4.83
2019-04-21T17:30:30.961Z,4.90
2019-04-21T17:33:03.459Z,4.30
2019-04-21T17:35:35.238Z,5.05
2019-04-21T17:38:06.384Z,5.40
2019-04-21T17:40:37.902Z,5.27
2019-04-21T17:43:12.831Z,4.40
2019-04-21T17:45:41.435Z,4.07
2019-04-21T17:48:15.934Z,5.13
2019-04-21T17:51:01.556Z,4.60
2019-04-21T17:54:08.234Z,5.60
2019-04-21T17:56:59.571Z,4.80
2019-04-21T17:59:43.302Z,6.10
2019-04-21T18:02:02.125Z,4.40
2019-04-21T18:04:31.087Z,5.33
2019-04-21T18:07:17.218Z,6.27
2019-04-21T18:09:56.463Z,4.97
2019-04-21T18:12:26.691Z,5.20
2019-04-21T18:14:52.957Z,4.63
2019-04-21T18:17:14.124Z,4.90
2019-04-21T18:19:47.449Z,6.23
2019-04-21T18:22:38.581Z,4.73
2019-04-21T18:25:24.238Z,5.40
2019-04-21T18:27:42.702Z,5.67
2019-04-21T18:30:42.578Z,5.50
2019-04-21T18:33:23.527Z,6.10
2019-04-21T18:36:06.688Z,6.53
2019-04-21T18:39:10.257Z,6.30
2019-04-21T18:41:30.102Z,6.70
2019-04-21T18:44:32.248Z,5.80
2019-04-21T18:47:06.892Z,5.57
2019-04-21T18:49:25.069Z,5.50
2019-04-21T18:52:18.336Z,7.07
2019-04-21T18:54:50.208Z,6.27
2019-04-21T18:57:21.877Z,5.10
2019-04-21T18:59:43.536Z,7.37
2019-04-21T19:02:16.443Z,5.53
2019-04-21T19:04:44.940Z,4.63
2019-04-21T19:07:27.283Z,7.90
2019-04-21T19:13:04.373Z,4.93
2019-04-21T19:15:07.615Z,5.00
2019-04-21T19:18:14.997Z,5.43
2019-04-21T19:20:19.395Z,6.20
2019-04-21T19:22:48.707Z,5.83
2019-04-21T19:25:24.025Z,7.70
2019-04-21T19:27:50.255Z,6.27
2019-04-21T19:30:33.233Z,6.17
2019-04-21T19:32:50.987Z,7.10
2019-04-21T19:35:10.815Z,5.90
2019-04-21T19:37:49.848Z,6.23
2019-04-21T19:40:31.693Z,5.93
2019-04-21T19:42:55.777Z,6.30
2019-04-21T19:45:35.261Z,8.13
2019-04-21T19:48:09.048Z,6.07
2019-04-21T19:50:41.972Z,8.87
2019-04-21T19:53:03.088Z,6.07
2019-04-21T19:55:29.725Z,5.23
2019-04-21T19:58:00.929Z,6.37
2019-04-21T20:00:31.037Z,5.57
2019-04-21T20:03:01.020Z,5.80
2019-04-21T20:05:43.075Z,5.27
2019-04-21T20:08:17.289Z,6.93
2019-04-21T20:10:55.507Z,5.47
2019-04-21T20:13:40.535Z,5.37
2019-04-21T20:15:57.118Z,5.13
2019-04-21T20:18:21.039Z,6.10
2019-04-21T20:20:43.857Z,7.17
2019-04-21T20:23:19.224Z,6.40
2019-04-21T20:25:49.869Z,7.30
2019-04-21T20:28:33.251Z,7.20
2019-04-21T20:31:06.712Z,7.17
2019-04-21T20:36:14.987Z,6.40
2019-04-21T20:38:35.562Z,7.23
2019-04-21T20:41:10.925Z,8.37
2019-04-21T20:43:45.877Z,6.83
2019-04-21T20:46:15.654Z,7.90
2019-04-21T20:48:51.275Z,7.60
2019-04-21T20:51:21.850Z,8.07
2019-04-21T20:53:53.662Z,7.63
2019-04-21T20:56:28.689Z,8.33
2019-04-21T20:59:01.516Z,7.67
2019-04-21T21:01:34.694Z,7.33
2019-04-21T21:04:02.388Z,7.90
2019-04-21T21:06:36.178Z,8.10
2019-04-21T21:09:10.330Z,8.20
2019-04-21T21:11:45.141Z,8.23
2019-04-21T21:14:16.337Z,7.70
2019-04-21T21:16:51.840Z,8.00
2019-04-21T21:19:21.011Z,8.40
2019-04-21T21:21:53.133Z,8.43
2019-04-21T21:24:20.526Z,8.60
2019-04-21T21:26:54.943Z,8.40
2019-04-21T21:29:31.205Z,9.27
2019-04-21T21:32:06.689Z,11.27
2019-04-21T21:34:38.827Z,8.00
2019-04-21T21:37:16.111Z,8.87
2019-04-21T21:39:40.566Z,10.27
2019-04-21T21:41:53.074Z,8.13
2019-04-21T21:44:24.529Z,8.93
2019-04-21T21:47:08.248Z,9.73
2019-04-21T21:49:38.241Z,8.20
2019-04-21T21:52:07.030Z,7.90
2019-04-21T21:54:29.709Z,8.03
2019-04-21T21:57:00.792Z,8.67
2019-04-21T21:59:33.659Z,7.17
2019-04-21T22:02:03.919Z,9.00
2019-04-21T22:04:37.283Z,9.70
2019-04-21T22:07:12.407Z,9.50
2019-04-21T22:09:39.913Z,9.07
2019-04-21T22:12:10.984Z,9.83
2019-04-21T22:14:46.893Z,9.20
2019-04-21T22:17:31.738Z,8.40
2019-04-21T22:20:08.527Z,10.57
2019-04-21T22:22:32.789Z,11.63
2019-04-21T22:24:59.012Z,9.30
2019-04-21T22:27:21.317Z,9.20
2019-04-21T22:29:57.204Z,8.60
2019-04-21T22:32:28.661Z,9.87
2019-04-21T22:35:01.577Z,9.17
2019-04-21T22:37:41.585Z,8.07
2019-04-21T22:40:12.645Z,9.50
2019-04-21T22:42:35.130Z,8.70
2019-04-21T22:45:02.842Z,9.13
2019-04-21T22:47:36.436Z,9.70
2019-04-21T22:50:06.455Z,8.63
2019-04-21T22:52:37.514Z,9.90
2019-04-21T22:55:15.045Z,9.27
2019-04-21T22:57:48.096Z,8.97
2019-04-21T23:00:16.692Z,9.00
2019-04-21T23:02:47.011Z,8.80
2019-04-21T23:05:22.317Z,8.83
2019-04-21T23:07:54.610Z,9.13
2019-04-21T23:10:23.297Z,9.10
2019-04-21T23:12:57.569Z,10.03
2019-04-21T23:15:35.638Z,9.50
2019-04-21T23:18:11.995Z,9.20
2019-04-21T23:20:51.694Z,8.97
2019-04-21T23:23:22.118Z,10.00
2019-04-21T23:25:47.288Z,9.10
2019-04-21T23:28:24.058Z,9.53
2019-04-21T23:31:00.626Z,9.73
2019-04-21T23:33:15.741Z,8.90
2019-04-21T23:35:45.994Z,9.73
2019-04-21T23:38:16.053Z,9.43
2019-04-21T23:40:54.312Z,9.30
2019-04-21T23:43:23.867Z,9.20
2019-04-21T23:45:50.638Z,8.63
2019-04-21T23:48:35.470Z,8.93
2019-04-21T23:51:08.149Z,8.93
2019-04-21T23:53:25.703Z,8.90
2019-04-21T23:55:56.757Z,8.80
2019-04-21T23:58:30.012Z,10.87
